createdAt,value
2022-10-04T00:01:46.718Z,6.65
2022-10-04T00:04:18.761Z,6.63
2022-10-04T00:07:00.184Z,6.59
2022-10-04T00:09:37.746Z,6.67
2022-10-04T00:12:05.627Z,6.67
2022-10-04T00:14:39.307Z,6.53
2022-10-04T00:17:11.381Z,6.59
2022-10-04T00:19:48.268Z,6.57
2022-10-04T00:22:20.190Z,6.46
2022-10-04T00:25:17.689Z,6.54
2022-10-04T00:28:26.571Z,6.52
2022-10-04T00:31:11.651Z,6.47
2022-10-04T00:33:58.188Z,6.30
2022-10-04T00:36:24.885Z,6.13
2022-10-04T00:39:09.719Z,6.16
2022-10-04T00:41:39.326Z,6.18
2022-10-04T00:44:11.368Z,6.25
2022-10-04T00:46:39.561Z,6.01
2022-10-04T00:49:07.498Z,6.04
2022-10-04T00:51:54.046Z,5.84
2022-10-04T00:54:23.541Z,5.77
2022-10-04T00:56:56.628Z,5.81
2022-10-04T00:59:39.108Z,5.89
2022-10-04T01:02:14.277Z,5.92
2022-10-04T01:04:47.686Z,5.89
2022-10-04T01:07:17.668Z,5.92
2022-10-04T01:09:54.279Z,5.82
2022-10-04T01:12:49.938Z,5.89
2022-10-04T01:15:31.738Z,5.83
2022-10-04T01:18:10.388Z,5.85
2022-10-04T01:20:56.874Z,5.88
2022-10-04T01:23:43.955Z,5.86
2022-10-04T01:26:41.044Z,5.76
2022-10-04T01:29:18.765Z,5.77
2022-10-04T01:31:47.639Z,5.75
2022-10-04T01:34:16.838Z,5.62
2022-10-04T01:36:46.217Z,5.59
2022-10-04T01:39:14.552Z,5.51
2022-10-04T01:42:05.222Z,5.51
2022-10-04T01:44:55.644Z,5.44
2022-10-04T01:47:48.888Z,5.25
2022-10-04T01:50:30.575Z,5.28
2022-10-04T01:53:02.446Z,5.36
2022-10-04T01:55:34.285Z,5.26
2022-10-04T01:58:07.738Z,5.32
2022-10-04T02:00:34.989Z,5.14
2022-10-04T02:03:15.126Z,5.06
2022-10-04T02:05:54.708Z,5.10
2022-10-04T02:08:27.956Z,5.20
2022-10-04T02:10:55.065Z,5.16
2022-10-04T02:13:23.028Z,5.14
2022-10-04T02:15:50.157Z,5.15
2022-10-04T02:18:19.280Z,5.31
2022-10-04T02:20:47.563Z,5.29
2022-10-04T02:23:17.458Z,5.29
2022-10-04T02:25:44.287Z,5.22
2022-10-04T02:28:13.975Z,5.14
2022-10-04T02:31:11.995Z,5.14
2022-10-04T02:33:41.393Z,5.13
2022-10-04T02:36:09.760Z,5.13
2022-10-04T02:38:48.216Z,4.91
2022-10-04T02:41:56.522Z,4.93
2022-10-04T02:44:29.267Z,4.81
2022-10-04T02:47:09.228Z,4.76
2022-10-04T02:49:40.087Z,4.82
2022-10-04T02:52:16.470Z,4.84
2022-10-04T02:55:10.746Z,4.91
2022-10-04T02:57:41.872Z,4.90
2022-10-04T03:00:17.681Z,4.89
2022-10-04T03:03:12.427Z,4.87
2022-10-04T03:05:40.269Z,4.79
2022-10-04T03:08:07.346Z,4.81
2022-10-04T03:10:35.420Z,4.86
2022-10-04T03:13:03.077Z,4.84
2022-10-04T03:15:29.795Z,4.85
2022-10-04T03:17:56.609Z,4.80
2022-10-04T03:20:23.367Z,4.80
2022-10-04T03:22:55.547Z,4.91
2022-10-04T03:25:29.285Z,4.94
2022-10-04T03:27:59.943Z,4.67
2022-10-04T03:30:26.756Z,4.59
2022-10-04T03:32:53.698Z,4.62
2022-10-04T03:35:40.480Z,4.66
2022-10-04T03:38:10.022Z,4.55
2022-10-04T03:40:37.913Z,4.58
2022-10-04T03:43:05.428Z,4.56
2022-10-04T03:45:34.492Z,4.55
2022-10-04T03:48:06.309Z,4.55
2022-10-04T03:50:41.917Z,4.51
2022-10-04T03:53:16.168Z,4.54
2022-10-04T03:55:44.385Z,4.64
2022-10-04T03:58:13.369Z,4.56
2022-10-04T04:01:08.772Z,4.52
2022-10-04T04:03:53.758Z,4.50
2022-10-04T04:06:21.197Z,4.57
2022-10-04T04:08:51.759Z,4.61
2022-10-04T04:11:28.055Z,4.59
2022-10-04T04:14:01.588Z,4.48
2022-10-04T04:16:28.479Z,4.42
2022-10-04T04:18:59.918Z,4.31
2022-10-04T04:21:27.619Z,4.25
2022-10-04T04:23:58.678Z,4.30
2022-10-04T04:26:33.007Z,4.39
2022-10-04T04:29:26.393Z,4.41
2022-10-04T04:31:58.495Z,4.24
2022-10-04T04:34:31.291Z,4.18
2022-10-04T04:37:03.601Z,4.23
2022-10-04T04:39:34.594Z,4.25
2022-10-04T04:42:10.533Z,4.24
2022-10-04T04:44:53.008Z,4.19
2022-10-04T04:47:26.463Z,4.04
2022-10-04T04:49:53.536Z,4.18
2022-10-04T04:52:21.751Z,4.16
2022-10-04T04:54:50.101Z,4.12
2022-10-04T04:57:17.514Z,4.13
2022-10-04T04:59:50.074Z,4.15
2022-10-04T05:02:37.071Z,4.04
2022-10-04T05:05:25.806Z,4.08
2022-10-04T05:08:15.621Z,4.11
2022-10-04T05:11:06.424Z,4.08
2022-10-04T05:13:43.791Z,4.14
2022-10-04T05:16:23.975Z,4.05
2022-10-04T05:19:01.806Z,4.00
2022-10-04T05:21:30.488Z,4.06
2022-10-04T05:23:59.227Z,4.05
2022-10-04T05:26:30.757Z,4.12
2022-10-04T05:29:00.859Z,4.13
2022-10-04T05:31:30.410Z,4.11
2022-10-04T05:34:00.056Z,4.18
2022-10-04T05:36:46.856Z,4.12
2022-10-04T05:39:27.887Z,4.19
2022-10-04T05:41:56.954Z,4.25
2022-10-04T05:44:29.579Z,4.30
2022-10-04T05:46:59.020Z,4.27
2022-10-04T05:49:29.699Z,4.26
2022-10-04T05:52:02.668Z,4.33
2022-10-04T05:54:35.868Z,4.35
2022-10-04T05:57:51.142Z,4.47
2022-10-04T06:00:21.709Z,4.52
2022-10-04T06:03:15.641Z,4.74
2022-10-04T06:06:02.628Z,4.71
2022-10-04T06:08:44.587Z,4.85
2022-10-04T06:11:11.807Z,5.04
2022-10-04T06:13:59.452Z,5.30
2022-10-04T06:17:04.357Z,5.74
2022-10-04T06:19:53.505Z,5.84
2022-10-04T06:22:26.784Z,6.14
2022-10-04T06:25:06.789Z,6.31
2022-10-04T06:27:41.182Z,6.66
2022-10-04T06:30:16.756Z,6.78
2022-10-04T06:33:01.748Z,7.06
2022-10-04T06:35:38.944Z,7.07
2022-10-04T06:38:33.136Z,7.24
2022-10-04T06:41:21.380Z,7.10
2022-10-04T06:44:09.263Z,7.21
2022-10-04T06:47:00.397Z,7.56
2022-10-04T06:49:47.086Z,7.73
2022-10-04T06:52:40.553Z,7.56
2022-10-04T06:55:13.578Z,7.83
2022-10-04T06:57:50.724Z,8.06
2022-10-04T07:00:17.584Z,8.10
2022-10-04T07:02:48.355Z,8.27
2022-10-04T07:05:30.516Z,8.16
2022-10-04T07:08:07.660Z,8.07
2022-10-04T07:10:55.614Z,8.07
2022-10-04T07:13:31.408Z,8.60
2022-10-04T07:16:07.172Z,9.00
2022-10-04T07:19:13.071Z,8.66
2022-10-04T07:22:17.134Z,8.84
2022-10-04T07:25:21.658Z,8.82
2022-10-04T07:28:11.995Z,9.43
2022-10-04T07:30:43.853Z,9.31
2022-10-04T07:33:15.690Z,9.84
2022-10-04T07:35:49.115Z,9.82
2022-10-04T07:38:18.670Z,9.72
2022-10-04T07:41:09.700Z,10.19
2022-10-04T07:43:52.311Z,10.54
2022-10-04T07:46:40.504Z,10.87
2022-10-04T07:49:14.469Z,10.85
2022-10-04T07:51:45.630Z,10.99
2022-10-04T07:54:15.602Z,11.60
2022-10-04T07:57:08.429Z,11.99
2022-10-04T07:59:45.581Z,12.05
2022-10-04T08:02:37.245Z,11.50
2022-10-04T08:05:18.937Z,11.98
2022-10-04T08:07:53.758Z,12.69
2022-10-04T08:10:54.212Z,11.54
2022-10-04T08:13:53.872Z,12.32
2022-10-04T08:16:36.579Z,13.14
2022-10-04T08:19:23.383Z,12.76
2022-10-04T08:22:03.849Z,12.52
2022-10-04T08:25:09.437Z,13.66
2022-10-04T08:28:07.901Z,13.76
2022-10-04T08:31:05.474Z,13.34
2022-10-04T08:33:48.217Z,13.91
2022-10-04T08:36:25.739Z,13.83
2022-10-04T08:38:59.966Z,13.98
2022-10-04T08:41:46.210Z,13.58
2022-10-04T08:44:13.468Z,12.93
2022-10-04T08:47:09.199Z,13.54
2022-10-04T08:50:11.399Z,13.78
2022-10-04T08:53:25.338Z,12.71
2022-10-04T08:56:13.977Z,13.79
2022-10-04T08:58:51.753Z,14.33
2022-10-04T09:01:46.276Z,14.33
2022-10-04T09:04:37.639Z,15.55
2022-10-04T09:07:44.714Z,15.32
2022-10-04T09:10:36.134Z,16.37
2022-10-04T09:13:05.812Z,16.42
2022-10-04T09:15:52.218Z,15.41
2022-10-04T09:18:46.590Z,15.13
2022-10-04T09:21:21.269Z,15.77
2022-10-04T09:24:13.079Z,16.00
2022-10-04T09:26:51.711Z,16.09
2022-10-04T09:29:41.457Z,16.16
2022-10-04T09:32:35.911Z,15.10
2022-10-04T09:35:32.196Z,15.12
2022-10-04T09:39:05.858Z,15.80
2022-10-04T09:41:40.860Z,15.83
2022-10-04T09:44:19.748Z,16.26
2022-10-04T09:47:38.082Z,15.66
2022-10-04T09:50:11.929Z,15.71
2022-10-04T09:53:00.539Z,15.87
2022-10-04T09:55:47.607Z,16.20
2022-10-04T09:58:36.366Z,16.19
2022-10-04T10:01:11.722Z,16.30
2022-10-04T10:03:55.418Z,16.20
2022-10-04T10:06:36.600Z,15.44
2022-10-04T10:09:12.552Z,15.54
2022-10-04T10:12:32.981Z,15.99
2022-10-04T10:15:18.687Z,16.36
2022-10-04T10:18:01.020Z,16.56
2022-10-04T10:20:52.447Z,16.20
2022-10-04T10:23:32.920Z,16.00
2022-10-04T10:26:22.998Z,16.85
2022-10-04T10:29:09.551Z,16.95
2022-10-04T10:32:15.721Z,17.25
2022-10-04T10:35:16.649Z,16.92
2022-10-04T10:38:14.498Z,17.47
2022-10-04T10:41:21.641Z,18.17
2022-10-04T10:44:09.395Z,17.56
2022-10-04T10:46:59.134Z,17.50
2022-10-04T10:49:40.360Z,17.93
2022-10-04T10:52:29.030Z,17.70
2022-10-04T10:55:27.136Z,18.30
2022-10-04T10:58:12.668Z,18.34
2022-10-04T11:01:06.031Z,18.21
2022-10-04T11:03:55.441Z,18.54
2022-10-04T11:06:40.617Z,19.06
2022-10-04T11:09:25.849Z,18.11
2022-10-04T11:12:30.009Z,18.74
2022-10-04T11:15:31.701Z,18.86
2022-10-04T11:18:17.259Z,17.88
2022-10-04T11:21:25.851Z,18.30
2022-10-04T11:24:24.909Z,18.47
2022-10-04T11:27:02.266Z,18.97
2022-10-04T11:29:31.940Z,18.78
2022-10-04T11:32:01.662Z,19.11
2022-10-04T11:34:47.262Z,18.92
2022-10-04T11:37:47.558Z,19.00
2022-10-04T11:40:14.216Z,17.95
2022-10-04T11:42:48.542Z,18.33
2022-10-04T11:45:21.378Z,18.10
2022-10-04T11:47:59.232Z,18.10
2022-10-04T11:50:35.519Z,18.45
2022-10-04T11:53:22.162Z,18.54
2022-10-04T11:56:04.386Z,18.75
2022-10-04T11:58:53.122Z,18.57
2022-10-04T12:01:54.079Z,18.47
2022-10-04T12:04:44.300Z,18.21
2022-10-04T12:07:35.300Z,18.45
2022-10-04T12:10:14.170Z,18.37
2022-10-04T12:12:52.986Z,18.47
2022-10-04T12:15:31.795Z,18.47
2022-10-04T12:18:18.060Z,18.23
2022-10-04T12:20:53.289Z,18.31
2022-10-04T12:23:56.481Z,18.46
2022-10-04T12:26:56.036Z,18.73
2022-10-04T12:30:02.190Z,18.92
2022-10-04T12:32:40.759Z,19.03
2022-10-04T12:35:37.749Z,18.88
2022-10-04T12:38:16.427Z,19.16
2022-10-04T12:40:52.921Z,18.80
2022-10-04T12:43:40.341Z,19.27
2022-10-04T12:46:30.229Z,18.61
2022-10-04T12:49:17.271Z,19.00
2022-10-04T12:51:54.029Z,18.95
2022-10-04T12:54:33.823Z,19.28
2022-10-04T12:57:18.829Z,19.31
2022-10-04T12:59:52.381Z,19.55
2022-10-04T13:02:28.318Z,18.85
2022-10-04T13:05:03.820Z,19.14
2022-10-04T13:07:51.551Z,19.32
2022-10-04T13:10:34.337Z,19.18
2022-10-04T13:13:19.467Z,19.16
2022-10-04T13:19:17.899Z,19.31
2022-10-04T13:22:09.899Z,19.29
2022-10-04T13:25:05.829Z,19.22
2022-10-04T13:27:57.703Z,19.07
2022-10-04T13:30:55.041Z,19.25
2022-10-04T13:33:46.591Z,19.02
2022-10-04T13:36:20.439Z,19.30
2022-10-04T13:39:19.020Z,18.97
2022-10-04T13:42:15.389Z,19.37
2022-10-04T13:44:44.951Z,19.35
2022-10-04T13:47:30.532Z,19.25
2022-10-04T13:50:17.507Z,19.02
2022-10-04T13:53:26.959Z,18.84
2022-10-04T13:56:37.240Z,19.03
2022-10-04T13:59:45.031Z,18.81
2022-10-04T14:02:29.923Z,19.03
2022-10-04T14:05:11.839Z,19.28
2022-10-04T14:08:16.029Z,19.26
2022-10-04T14:11:01.233Z,19.12
2022-10-04T14:13:40.801Z,18.85
2022-10-04T14:16:38.776Z,18.79
2022-10-04T14:19:11.512Z,19.08
2022-10-04T14:21:47.880Z,18.99
2022-10-04T14:24:17.531Z,19.07
2022-10-04T14:27:23.690Z,19.02
2022-10-04T14:30:10.448Z,19.01
2022-10-04T14:33:14.600Z,18.79
2022-10-04T14:35:49.162Z,18.80
2022-10-04T14:38:26.646Z,18.65
2022-10-04T14:41:19.869Z,18.36
2022-10-04T14:43:46.547Z,18.28
2022-10-04T14:46:29.734Z,18.10
2022-10-04T14:48:59.140Z,18.07
2022-10-04T14:51:56.977Z,17.99
2022-10-04T14:54:25.691Z,18.06
2022-10-04T14:56:58.029Z,17.88
2022-10-04T14:59:33.660Z,17.45
2022-10-04T15:02:09.568Z,17.09
2022-10-04T15:04:54.533Z,16.69
2022-10-04T15:07:32.888Z,16.42
2022-10-04T15:10:12.758Z,15.86
2022-10-04T15:13:18.101Z,15.54
2022-10-04T15:16:14.560Z,15.26
2022-10-04T15:18:52.661Z,15.27
2022-10-04T15:21:47.040Z,15.16
2022-10-04T15:24:16.430Z,15.13
2022-10-04T15:27:01.061Z,15.03
2022-10-04T15:29:48.782Z,15.02
2022-10-04T15:32:35.458Z,14.81
2022-10-04T15:35:22.794Z,14.98
2022-10-04T15:37:52.429Z,14.65
2022-10-04T15:40:22.190Z,14.49
2022-10-04T15:43:03.602Z,14.47
2022-10-04T15:46:02.334Z,14.39
2022-10-04T15:49:04.155Z,14.18
2022-10-04T15:52:00.037Z,14.25
2022-10-04T15:54:30.172Z,14.26
2022-10-04T15:57:05.105Z,14.12
2022-10-04T15:59:55.670Z,14.12
2022-10-04T16:02:41.272Z,14.09
2022-10-04T16:05:17.597Z,14.07
2022-10-04T16:08:11.581Z,13.98
2022-10-04T16:10:47.808Z,13.88
2022-10-04T16:13:17.689Z,13.87
2022-10-04T16:15:50.478Z,13.70
2022-10-04T16:18:45.450Z,13.62
2022-10-04T16:21:34.012Z,13.69
2022-10-04T16:24:21.724Z,13.26
2022-10-04T16:26:51.433Z,13.29
2022-10-04T16:29:39.161Z,13.33
2022-10-04T16:32:15.799Z,13.35
2022-10-04T16:34:53.300Z,13.25
2022-10-04T16:37:53.517Z,13.02
2022-10-04T16:40:52.681Z,12.81
2022-10-04T16:43:19.322Z,12.80
2022-10-04T16:46:04.324Z,12.74
2022-10-04T16:48:51.613Z,12.76
2022-10-04T16:51:18.347Z,12.83
2022-10-04T16:54:10.179Z,12.66
2022-10-04T16:56:54.158Z,12.64
2022-10-04T16:59:39.490Z,12.44
2022-10-04T17:02:15.345Z,12.25
2022-10-04T17:05:06.060Z,12.15
2022-10-04T17:07:56.217Z,12.25
2022-10-04T17:10:31.549Z,12.12
2022-10-04T17:13:32.379Z,12.00
2022-10-04T17:16:03.181Z,11.92
2022-10-04T17:18:36.053Z,11.78
2022-10-04T17:21:10.800Z,11.86
2022-10-04T17:24:07.557Z,11.61
2022-10-04T17:26:47.484Z,11.57
2022-10-04T17:29:56.402Z,11.51
2022-10-04T17:33:07.867Z,11.62
2022-10-04T17:36:07.041Z,11.33
2022-10-04T17:38:45.959Z,11.22
2022-10-04T17:41:21.853Z,11.25
2022-10-04T17:43:48.480Z,11.16
2022-10-04T17:46:24.432Z,11.13
2022-10-04T17:49:19.007Z,10.99
2022-10-04T17:52:23.528Z,10.85
2022-10-04T17:55:16.757Z,10.93
2022-10-04T17:57:51.199Z,10.76
2022-10-04T18:00:29.479Z,10.76
2022-10-04T18:03:16.589Z,10.57
2022-10-04T18:05:44.447Z,10.41
2022-10-04T18:08:20.391Z,10.48
2022-10-04T18:10:54.961Z,10.48
2022-10-04T18:13:40.617Z,10.16
2022-10-04T18:16:41.490Z,9.90
2022-10-04T18:19:44.407Z,10.07
2022-10-04T18:22:18.859Z,10.15
2022-10-04T18:24:47.821Z,10.21
2022-10-04T18:27:18.889Z,10.12
2022-10-04T18:30:01.728Z,10.07
2022-10-04T18:32:28.359Z,10.11
2022-10-04T18:34:56.774Z,10.05
2022-10-04T18:37:29.450Z,10.01
2022-10-04T18:40:13.392Z,9.85
2022-10-04T18:42:42.655Z,9.82
2022-10-04T18:45:38.961Z,9.90
2022-10-04T18:48:16.102Z,9.81
2022-10-04T18:50:47.311Z,9.67
2022-10-04T18:53:26.649Z,9.70
2022-10-04T18:55:53.402Z,9.64
2022-10-04T18:59:04.937Z,9.54
2022-10-04T19:02:06.892Z,9.51
2022-10-04T19:04:48.617Z,9.34
2022-10-04T19:07:50.731Z,9.16
2022-10-04T19:10:40.625Z,9.10
2022-10-04T19:13:22.309Z,9.15
2022-10-04T19:16:24.080Z,9.12
2022-10-04T19:18:59.176Z,9.05
2022-10-04T19:21:38.189Z,8.87
2022-10-04T19:24:11.843Z,9.01
2022-10-04T19:26:41.864Z,9.04
2022-10-04T19:29:41.569Z,9.05
2022-10-04T19:32:14.247Z,8.97
2022-10-04T19:34:54.039Z,8.82
2022-10-04T19:37:29.350Z,8.93
2022-10-04T19:40:24.116Z,8.85
2022-10-04T19:43:02.135Z,8.78
2022-10-04T19:45:54.570Z,8.78
2022-10-04T19:48:26.058Z,8.73
2022-10-04T19:51:09.429Z,8.78
2022-10-04T19:53:43.655Z,8.83
2022-10-04T19:56:18.900Z,8.83
2022-10-04T19:59:10.358Z,8.81
2022-10-04T20:01:38.711Z,8.77
2022-10-04T20:04:33.076Z,8.65
2022-10-04T20:07:01.795Z,8.52
2022-10-04T20:09:37.541Z,8.51
2022-10-04T20:12:05.699Z,8.62
2022-10-04T20:14:32.362Z,8.72
2022-10-04T20:17:00.857Z,8.44
2022-10-04T20:19:27.390Z,8.41
2022-10-04T20:22:13.906Z,8.50
2022-10-04T20:24:40.628Z,8.43
2022-10-04T20:27:22.279Z,8.29
2022-10-04T20:29:51.837Z,8.25
2022-10-04T20:32:27.316Z,8.33
2022-10-04T20:34:55.391Z,8.35
2022-10-04T20:37:22.519Z,8.32
2022-10-04T20:39:58.180Z,8.30
2022-10-04T20:42:30.065Z,8.31
2022-10-04T20:44:58.229Z,8.36
2022-10-04T20:47:30.898Z,8.36
2022-10-04T20:49:59.998Z,8.30
2022-10-04T20:52:29.270Z,8.31
2022-10-04T20:54:57.241Z,8.06
2022-10-04T20:57:24.109Z,8.11
2022-10-04T20:59:54.641Z,8.03
2022-10-04T21:02:23.690Z,8.04
2022-10-04T21:04:53.464Z,7.92
2022-10-04T21:07:25.230Z,7.97
2022-10-04T21:09:55.263Z,7.93
2022-10-04T21:12:40.490Z,7.82
2022-10-04T21:15:17.705Z,7.89
2022-10-04T21:18:07.306Z,7.86
2022-10-04T21:20:44.725Z,7.63
2022-10-04T21:23:30.248Z,7.67
2022-10-04T21:26:22.385Z,7.64
2022-10-04T21:28:58.898Z,7.49
2022-10-04T21:31:25.709Z,7.59
2022-10-04T21:33:52.492Z,7.63
2022-10-04T21:36:19.103Z,7.53
2022-10-04T21:38:45.718Z,7.55
2022-10-04T21:41:12.332Z,7.32
2022-10-04T21:43:38.939Z,7.32
2022-10-04T21:46:05.979Z,7.49
2022-10-04T21:48:32.563Z,7.42
2022-10-04T21:50:59.142Z,7.26
2022-10-04T21:53:25.689Z,7.27
2022-10-04T21:55:52.524Z,7.34
2022-10-04T21:58:19.148Z,7.25
2022-10-04T22:00:46.152Z,7.17
2022-10-04T22:03:12.770Z,7.20
2022-10-04T22:05:39.343Z,7.20
2022-10-04T22:08:05.938Z,7.10
2022-10-04T22:10:32.590Z,7.14
2022-10-04T22:12:59.342Z,7.12
2022-10-04T22:15:26.953Z,7.06
2022-10-04T22:17:54.098Z,7.12
2022-10-04T22:20:20.833Z,7.08
2022-10-04T22:22:47.458Z,6.95
2022-10-04T22:25:20.070Z,6.95
2022-10-04T22:27:47.322Z,7.04
2022-10-04T22:30:29.888Z,6.98
2022-10-04T22:32:58.771Z,6.93
2022-10-04T22:35:25.424Z,7.01
2022-10-04T22:37:52.198Z,7.00
2022-10-04T22:40:21.482Z,6.81
2022-10-04T22:42:52.874Z,6.77
2022-10-04T22:45:27.485Z,6.83
2022-10-04T22:47:57.192Z,6.70
2022-10-04T22:50:31.035Z,6.68
2022-10-04T22:52:58.119Z,6.67
2022-10-04T22:55:24.990Z,6.70
2022-10-04T22:57:51.733Z,6.65
2022-10-04T23:00:18.596Z,6.64
2022-10-04T23:02:45.276Z,6.65
2022-10-04T23:05:17.568Z,6.65
2022-10-04T23:07:45.585Z,6.57
2022-10-04T23:10:14.483Z,6.57
2022-10-04T23:12:45.799Z,6.53
2022-10-04T23:15:20.288Z,6.52
2022-10-04T23:17:52.947Z,6.54
2022-10-04T23:20:22.720Z,6.37
2022-10-04T23:22:51.258Z,6.40
2022-10-04T23:25:27.701Z,6.35
2022-10-04T23:28:01.252Z,6.05
2022-10-04T23:30:27.874Z,6.23
2022-10-04T23:32:58.096Z,6.27
2022-10-04T23:35:26.641Z,6.41
2022-10-04T23:37:53.712Z,6.22
2022-10-04T23:40:22.105Z,6.21
2022-10-04T23:42:50.236Z,6.18
2022-10-04T23:45:22.235Z,6.24
2022-10-04T23:48:01.056Z,6.06
2022-10-04T23:50:30.988Z,6.07
2022-10-04T23:53:04.473Z,6.12
2022-10-04T23:55:35.525Z,5.98
2022-10-04T23:58:05.920Z,6.02
